sensor_id;sensor_type;location;lat;lon;timestamp;P1;durP1;ratioP1;P2;durP2;ratioP2
19812;SDS011;10066;48.108;11.448;2022-10-16T00:01:33;3.23;;;1.87;;
19812;SDS011;10066;48.108;11.448;2022-10-16T00:04:00;2.80;;;1.90;;
19812;SDS011;10066;48.108;11.448;2022-10-16T00:06:28;1.80;;;1.50;;
19812;SDS011;10066;48.108;11.448;2022-10-16T00:08:57;4.30;;;1.50;;
19812;SDS011;10066;48.108;11.448;2022-10-16T00:11:26;5.73;;;1.83;;
19812;SDS011;10066;48.108;11.448;2022-10-16T00:13:55;3.53;;;1.50;;
19812;SDS011;10066;48.108;11.448;2022-10-16T00:16:24;5.60;;;1.50;;
19812;SDS011;10066;48.108;11.448;2022-10-16T00:18:52;2.60;;;1.60;;
19812;SDS011;10066;48.108;11.448;2022-10-16T00:21:20;2.67;;;1.50;;
19812;SDS011;10066;48.108;11.448;2022-10-16T00:23:49;3.93;;;1.50;;
19812;SDS011;10066;48.108;11.448;2022-10-16T00:26:17;2.20;;;1.70;;
19812;SDS011;10066;48.108;11.448;2022-10-16T00:28:47;2.63;;;1.40;;
19812;SDS011;10066;48.108;11.448;2022-10-16T00:31:15;1.67;;;1.50;;
19812;SDS011;10066;48.108;11.448;2022-10-16T00:33:43;2.93;;;1.47;;
19812;SDS011;10066;48.108;11.448;2022-10-16T00:36:12;2.40;;;1.40;;
19812;SDS011;10066;48.108;11.448;2022-10-16T00:38:40;4.70;;;1.37;;
19812;SDS011;10066;48.108;11.448;2022-10-16T00:41:09;4.43;;;1.50;;
19812;SDS011;10066;48.108;11.448;2022-10-16T00:43:39;3.43;;;1.50;;
19812;SDS011;10066;48.108;11.448;2022-10-16T00:46:13;1.63;;;1.33;;
19812;SDS011;10066;48.108;11.448;2022-10-16T00:48:45;1.80;;;1.40;;
19812;SDS011;10066;48.108;11.448;2022-10-16T00:51:17;2.07;;;1.47;;
19812;SDS011;10066;48.108;11.448;2022-10-16T00:53:48;2.43;;;1.50;;
19812;SDS011;10066;48.108;11.448;2022-10-16T00:56:16;4.73;;;1.30;;
19812;SDS011;10066;48.108;11.448;2022-10-16T00:58:44;4.30;;;1.43;;
19812;SDS011;10066;48.108;11.448;2022-10-16T01:01:13;2.43;;;1.40;;
19812;SDS011;10066;48.108;11.448;2022-10-16T01:03:40;4.43;;;1.57;;
19812;SDS011;10066;48.108;11.448;2022-10-16T01:06:09;3.77;;;1.60;;
19812;SDS011;10066;48.108;11.448;2022-10-16T01:08:48;3.97;;;1.40;;
19812;SDS011;10066;48.108;11.448;2022-10-16T01:11:26;2.00;;;1.30;;
19812;SDS011;10066;48.108;11.448;2022-10-16T01:13:59;2.40;;;1.47;;
19812;SDS011;10066;48.108;11.448;2022-10-16T01:16:34;3.73;;;1.40;;
19812;SDS011;10066;48.108;11.448;2022-10-16T01:19:08;5.47;;;1.50;;
19812;SDS011;10066;48.108;11.448;2022-10-16T01:21:39;1.63;;;1.30;;
19812;SDS011;10066;48.108;11.448;2022-10-16T01:24:10;3.80;;;1.50;;
19812;SDS011;10066;48.108;11.448;2022-10-16T01:26:49;1.80;;;1.50;;
19812;SDS011;10066;48.108;11.448;2022-10-16T01:29:29;3.03;;;1.30;;
19812;SDS011;10066;48.108;11.448;2022-10-16T01:32:01;2.63;;;1.63;;
19812;SDS011;10066;48.108;11.448;2022-10-16T01:34:37;3.53;;;1.83;;
19812;SDS011;10066;48.108;11.448;2022-10-16T01:37:12;2.37;;;1.50;;
19812;SDS011;10066;48.108;11.448;2022-10-16T01:39:43;2.03;;;1.30;;
19812;SDS011;10066;48.108;11.448;2022-10-16T01:42:16;6.20;;;2.50;;
19812;SDS011;10066;48.108;11.448;2022-10-16T01:44:48;4.67;;;2.60;;
19812;SDS011;10066;48.108;11.448;2022-10-16T01:47:16;2.87;;;1.87;;
19812;SDS011;10066;48.108;11.448;2022-10-16T01:49:45;3.07;;;2.60;;
19812;SDS011;10066;48.108;11.448;2022-10-16T01:52:14;6.47;;;2.90;;
19812;SDS011;10066;48.108;11.448;2022-10-16T01:54:46;5.07;;;2.23;;
19812;SDS011;10066;48.108;11.448;2022-10-16T01:57:17;2.90;;;2.40;;
19812;SDS011;10066;48.108;11.448;2022-10-16T01:59:47;1.97;;;1.30;;
19812;SDS011;10066;48.108;11.448;2022-10-16T02:02:18;2.37;;;1.70;;
19812;SDS011;10066;48.108;11.448;2022-10-16T02:04:48;5.30;;;1.83;;
19812;SDS011;10066;48.108;11.448;2022-10-16T02:07:19;3.10;;;1.50;;
19812;SDS011;10066;48.108;11.448;2022-10-16T02:09:46;3.17;;;1.50;;
19812;SDS011;10066;48.108;11.448;2022-10-16T02:12:14;3.13;;;1.43;;
19812;SDS011;10066;48.108;11.448;2022-10-16T02:14:47;1.53;;;1.10;;
19812;SDS011;10066;48.108;11.448;2022-10-16T02:17:14;2.23;;;1.50;;
19812;SDS011;10066;48.108;11.448;2022-10-16T02:19:43;2.60;;;1.27;;
19812;SDS011;10066;48.108;11.448;2022-10-16T02:22:15;3.53;;;1.30;;
19812;SDS011;10066;48.108;11.448;2022-10-16T02:24:49;2.63;;;1.33;;
19812;SDS011;10066;48.108;11.448;2022-10-16T02:27:24;1.60;;;1.40;;
19812;SDS011;10066;48.108;11.448;2022-10-16T02:29:59;3.40;;;1.50;;
19812;SDS011;10066;48.108;11.448;2022-10-16T02:32:32;3.53;;;1.43;;
19812;SDS011;10066;48.108;11.448;2022-10-16T02:35:02;2.00;;;1.30;;
19812;SDS011;10066;48.108;11.448;2022-10-16T02:37:30;5.10;;;1.50;;
19812;SDS011;10066;48.108;11.448;2022-10-16T02:39:58;2.83;;;1.37;;
19812;SDS011;10066;48.108;11.448;2022-10-16T02:42:29;2.50;;;1.53;;
19812;SDS011;10066;48.108;11.448;2022-10-16T02:45:01;2.73;;;1.20;;
19812;SDS011;10066;48.108;11.448;2022-10-16T02:47:28;3.10;;;1.40;;
19812;SDS011;10066;48.108;11.448;2022-10-16T02:49:55;2.77;;;1.43;;
19812;SDS011;10066;48.108;11.448;2022-10-16T02:52:22;2.67;;;1.37;;
19812;SDS011;10066;48.108;11.448;2022-10-16T02:54:49;5.30;;;1.43;;
19812;SDS011;10066;48.108;11.448;2022-10-16T02:57:17;3.53;;;1.60;;
19812;SDS011;10066;48.108;11.448;2022-10-16T02:59:44;3.70;;;1.50;;
19812;SDS011;10066;48.108;11.448;2022-10-16T03:02:13;3.00;;;1.40;;
19812;SDS011;10066;48.108;11.448;2022-10-16T03:04:39;1.80;;;1.57;;
19812;SDS011;10066;48.108;11.448;2022-10-16T03:07:06;2.67;;;1.20;;
19812;SDS011;10066;48.108;11.448;2022-10-16T03:09:33;4.77;;;1.53;;
19812;SDS011;10066;48.108;11.448;2022-10-16T03:12:00;1.50;;;1.40;;
19812;SDS011;10066;48.108;11.448;2022-10-16T03:14:27;1.53;;;1.10;;
19812;SDS011;10066;48.108;11.448;2022-10-16T03:16:55;4.10;;;1.50;;
19812;SDS011;10066;48.108;11.448;2022-10-16T03:19:23;1.67;;;1.40;;
19812;SDS011;10066;48.108;11.448;2022-10-16T03:21:50;2.60;;;1.30;;
19812;SDS011;10066;48.108;11.448;2022-10-16T03:24:17;1.80;;;1.27;;
19812;SDS011;10066;48.108;11.448;2022-10-16T03:26:44;1.80;;;1.53;;
19812;SDS011;10066;48.108;11.448;2022-10-16T03:29:11;2.87;;;1.40;;
19812;SDS011;10066;48.108;11.448;2022-10-16T03:31:38;4.00;;;1.30;;
19812;SDS011;10066;48.108;11.448;2022-10-16T03:34:05;2.43;;;1.87;;
19812;SDS011;10066;48.108;11.448;2022-10-16T03:36:33;4.17;;;1.67;;
19812;SDS011;10066;48.108;11.448;2022-10-16T03:39:01;1.90;;;1.50;;
19812;SDS011;10066;48.108;11.448;2022-10-16T03:41:29;2.90;;;1.60;;
19812;SDS011;10066;48.108;11.448;2022-10-16T03:43:56;5.07;;;1.40;;
19812;SDS011;10066;48.108;11.448;2022-10-16T03:46:23;2.30;;;1.50;;
19812;SDS011;10066;48.108;11.448;2022-10-16T03:48:50;2.43;;;1.60;;
19812;SDS011;10066;48.108;11.448;2022-10-16T03:51:18;3.67;;;1.50;;
19812;SDS011;10066;48.108;11.448;2022-10-16T03:53:47;2.73;;;1.63;;
19812;SDS011;10066;48.108;11.448;2022-10-16T03:56:14;5.83;;;1.90;;
19812;SDS011;10066;48.108;11.448;2022-10-16T03:58:41;4.67;;;1.73;;
19812;SDS011;10066;48.108;11.448;2022-10-16T04:01:08;2.60;;;1.43;;
19812;SDS011;10066;48.108;11.448;2022-10-16T04:03:35;2.97;;;1.67;;
19812;SDS011;10066;48.108;11.448;2022-10-16T04:06:02;2.30;;;1.37;;
19812;SDS011;10066;48.108;11.448;2022-10-16T04:08:29;3.53;;;1.43;;
19812;SDS011;10066;48.108;11.448;2022-10-16T04:11:00;1.60;;;1.50;;
19812;SDS011;10066;48.108;11.448;2022-10-16T04:13:27;2.50;;;1.70;;
19812;SDS011;10066;48.108;11.448;2022-10-16T04:15:54;2.60;;;1.50;;
19812;SDS011;10066;48.108;11.448;2022-10-16T04:18:21;2.33;;;1.60;;
19812;SDS011;10066;48.108;11.448;2022-10-16T04:20:48;2.17;;;1.40;;
19812;SDS011;10066;48.108;11.448;2022-10-16T04:23:15;2.47;;;1.50;;
19812;SDS011;10066;48.108;11.448;2022-10-16T04:25:42;2.03;;;1.30;;
19812;SDS011;10066;48.108;11.448;2022-10-16T04:28:11;1.80;;;1.30;;
19812;SDS011;10066;48.108;11.448;2022-10-16T04:30:38;2.50;;;1.60;;
19812;SDS011;10066;48.108;11.448;2022-10-16T04:33:05;1.57;;;1.47;;
19812;SDS011;10066;48.108;11.448;2022-10-16T04:35:34;3.60;;;1.40;;
19812;SDS011;10066;48.108;11.448;2022-10-16T04:38:01;1.37;;;1.20;;
19812;SDS011;10066;48.108;11.448;2022-10-16T04:40:28;2.67;;;1.60;;
19812;SDS011;10066;48.108;11.448;2022-10-16T04:42:57;3.60;;;1.40;;
19812;SDS011;10066;48.108;11.448;2022-10-16T04:45:25;2.87;;;1.40;;
19812;SDS011;10066;48.108;11.448;2022-10-16T04:47:53;1.70;;;1.53;;
19812;SDS011;10066;48.108;11.448;2022-10-16T04:50:23;3.23;;;1.10;;
19812;SDS011;10066;48.108;11.448;2022-10-16T04:52:50;1.63;;;1.27;;
19812;SDS011;10066;48.108;11.448;2022-10-16T04:55:17;2.10;;;1.30;;
19812;SDS011;10066;48.108;11.448;2022-10-16T04:57:44;2.20;;;1.43;;
19812;SDS011;10066;48.108;11.448;2022-10-16T05:00:11;6.73;;;1.40;;
19812;SDS011;10066;48.108;11.448;2022-10-16T05:02:40;2.73;;;1.50;;
19812;SDS011;10066;48.108;11.448;2022-10-16T05:05:07;2.13;;;1.40;;
19812;SDS011;10066;48.108;11.448;2022-10-16T05:07:34;4.10;;;1.40;;
19812;SDS011;10066;48.108;11.448;2022-10-16T05:10:01;2.53;;;1.33;;
19812;SDS011;10066;48.108;11.448;2022-10-16T05:12:29;3.20;;;1.17;;
19812;SDS011;10066;48.108;11.448;2022-10-16T05:14:56;2.73;;;1.30;;
19812;SDS011;10066;48.108;11.448;2022-10-16T05:17:23;2.13;;;1.10;;
19812;SDS011;10066;48.108;11.448;2022-10-16T05:19:52;6.20;;;1.10;;
19812;SDS011;10066;48.108;11.448;2022-10-16T05:22:19;1.90;;;1.10;;
19812;SDS011;10066;48.108;11.448;2022-10-16T05:24:46;3.47;;;1.30;;
19812;SDS011;10066;48.108;11.448;2022-10-16T05:27:14;1.47;;;1.20;;
19812;SDS011;10066;48.108;11.448;2022-10-16T05:29:44;2.77;;;1.60;;
19812;SDS011;10066;48.108;11.448;2022-10-16T05:32:12;1.93;;;1.23;;
19812;SDS011;10066;48.108;11.448;2022-10-16T05:34:39;3.60;;;1.23;;
19812;SDS011;10066;48.108;11.448;2022-10-16T05:37:07;2.50;;;1.37;;
19812;SDS011;10066;48.108;11.448;2022-10-16T05:39:35;2.80;;;1.60;;
19812;SDS011;10066;48.108;11.448;2022-10-16T05:42:02;1.90;;;1.30;;
19812;SDS011;10066;48.108;11.448;2022-10-16T05:44:30;1.67;;;1.40;;
19812;SDS011;10066;48.108;11.448;2022-10-16T05:46:57;1.40;;;1.20;;
19812;SDS011;10066;48.108;11.448;2022-10-16T05:49:24;1.77;;;1.13;;
19812;SDS011;10066;48.108;11.448;2022-10-16T05:51:51;2.63;;;1.40;;
19812;SDS011;10066;48.108;11.448;2022-10-16T05:54:22;1.33;;;1.10;;
19812;SDS011;10066;48.108;11.448;2022-10-16T05:56:49;2.00;;;0.93;;
19812;SDS011;10066;48.108;11.448;2022-10-16T05:59:16;1.40;;;1.23;;
19812;SDS011;10066;48.108;11.448;2022-10-16T06:01:43;1.70;;;1.30;;
19812;SDS011;10066;48.108;11.448;2022-10-16T06:04:10;1.27;;;1.17;;
19812;SDS011;10066;48.108;11.448;2022-10-16T06:06:38;1.90;;;1.47;;
19812;SDS011;10066;48.108;11.448;2022-10-16T06:09:05;4.87;;;1.53;;
19812;SDS011;10066;48.108;11.448;2022-10-16T06:11:33;2.13;;;1.30;;
19812;SDS011;10066;48.108;11.448;2022-10-16T06:14:01;2.67;;;1.50;;
19812;SDS011;10066;48.108;11.448;2022-10-16T06:16:32;3.47;;;1.50;;
19812;SDS011;10066;48.108;11.448;2022-10-16T06:18:59;1.87;;;1.57;;
19812;SDS011;10066;48.108;11.448;2022-10-16T06:21:27;2.57;;;1.40;;
19812;SDS011;10066;48.108;11.448;2022-10-16T06:23:55;2.70;;;1.50;;
19812;SDS011;10066;48.108;11.448;2022-10-16T06:26:23;2.37;;;1.50;;
19812;SDS011;10066;48.108;11.448;2022-10-16T06:28:54;1.50;;;1.33;;
19812;SDS011;10066;48.108;11.448;2022-10-16T06:31:22;2.07;;;1.60;;
19812;SDS011;10066;48.108;11.448;2022-10-16T06:33:52;1.47;;;1.37;;
19812;SDS011;10066;48.108;11.448;2022-10-16T06:36:21;3.43;;;1.60;;
19812;SDS011;10066;48.108;11.448;2022-10-16T06:38:48;2.63;;;1.40;;
19812;SDS011;10066;48.108;11.448;2022-10-16T06:41:16;2.73;;;1.50;;
19812;SDS011;10066;48.108;11.448;2022-10-16T06:43:45;1.70;;;1.60;;
19812;SDS011;10066;48.108;11.448;2022-10-16T06:46:14;2.23;;;1.80;;
19812;SDS011;10066;48.108;11.448;2022-10-16T06:48:42;2.60;;;1.67;;
19812;SDS011;10066;48.108;11.448;2022-10-16T06:51:10;1.47;;;1.37;;
19812;SDS011;10066;48.108;11.448;2022-10-16T06:53:39;1.90;;;1.63;;
19812;SDS011;10066;48.108;11.448;2022-10-16T06:56:08;3.27;;;1.60;;
19812;SDS011;10066;48.108;11.448;2022-10-16T06:58:36;1.50;;;1.40;;
19812;SDS011;10066;48.108;11.448;2022-10-16T07:01:03;3.10;;;1.57;;
19812;SDS011;10066;48.108;11.448;2022-10-16T07:03:32;5.63;;;1.53;;
19812;SDS011;10066;48.108;11.448;2022-10-16T07:06:01;1.73;;;1.60;;
19812;SDS011;10066;48.108;11.448;2022-10-16T07:08:30;4.67;;;1.70;;
19812;SDS011;10066;48.108;11.448;2022-10-16T07:10:59;4.67;;;1.63;;
19812;SDS011;10066;48.108;11.448;2022-10-16T07:13:27;1.97;;;1.40;;
19812;SDS011;10066;48.108;11.448;2022-10-16T07:15:54;2.00;;;1.50;;
19812;SDS011;10066;48.108;11.448;2022-10-16T07:18:21;3.27;;;1.70;;
19812;SDS011;10066;48.108;11.448;2022-10-16T07:20:53;2.70;;;1.40;;
19812;SDS011;10066;48.108;11.448;2022-10-16T07:23:28;2.30;;;1.60;;
19812;SDS011;10066;48.108;11.448;2022-10-16T07:25:55;2.73;;;1.70;;
19812;SDS011;10066;48.108;11.448;2022-10-16T07:28:22;1.87;;;1.67;;
19812;SDS011;10066;48.108;11.448;2022-10-16T07:30:50;2.73;;;1.77;;
19812;SDS011;10066;48.108;11.448;2022-10-16T07:33:17;3.67;;;1.70;;
19812;SDS011;10066;48.108;11.448;2022-10-16T07:35:47;2.60;;;1.97;;
19812;SDS011;10066;48.108;11.448;2022-10-16T07:38:17;3.33;;;2.17;;
19812;SDS011;10066;48.108;11.448;2022-10-16T07:40:44;2.80;;;1.73;;
19812;SDS011;10066;48.108;11.448;2022-10-16T07:43:12;1.67;;;1.50;;
19812;SDS011;10066;48.108;11.448;2022-10-16T07:45:46;2.83;;;1.50;;
19812;SDS011;10066;48.108;11.448;2022-10-16T07:48:13;2.27;;;1.60;;
19812;SDS011;10066;48.108;11.448;2022-10-16T07:50:40;3.50;;;1.60;;
19812;SDS011;10066;48.108;11.448;2022-10-16T07:53:08;2.70;;;1.40;;
19812;SDS011;10066;48.108;11.448;2022-10-16T07:55:37;1.63;;;1.50;;
19812;SDS011;10066;48.108;11.448;2022-10-16T07:58:04;4.87;;;1.43;;
19812;SDS011;10066;48.108;11.448;2022-10-16T08:00:32;3.53;;;1.50;;
19812;SDS011;10066;48.108;11.448;2022-10-16T08:03:00;3.67;;;1.70;;
19812;SDS011;10066;48.108;11.448;2022-10-16T08:05:27;2.60;;;1.70;;
19812;SDS011;10066;48.108;11.448;2022-10-16T08:07:55;1.70;;;1.50;;
19812;SDS011;10066;48.108;11.448;2022-10-16T08:10:24;3.53;;;1.80;;
19812;SDS011;10066;48.108;11.448;2022-10-16T08:12:54;2.30;;;1.60;;
19812;SDS011;10066;48.108;11.448;2022-10-16T08:15:20;3.27;;;1.60;;
19812;SDS011;10066;48.108;11.448;2022-10-16T08:17:54;1.70;;;1.60;;
19812;SDS011;10066;48.108;11.448;2022-10-16T08:20:22;2.40;;;1.90;;
19812;SDS011;10066;48.108;11.448;2022-10-16T08:22:49;5.00;;;1.60;;
19812;SDS011;10066;48.108;11.448;2022-10-16T08:25:16;1.93;;;1.60;;
19812;SDS011;10066;48.108;11.448;2022-10-16T08:27:43;4.77;;;1.60;;
19812;SDS011;10066;48.108;11.448;2022-10-16T08:30:12;3.53;;;1.50;;
19812;SDS011;10066;48.108;11.448;2022-10-16T08:32:39;3.73;;;1.57;;
19812;SDS011;10066;48.108;11.448;2022-10-16T08:35:07;1.73;;;1.50;;
19812;SDS011;10066;48.108;11.448;2022-10-16T08:37:35;1.93;;;1.50;;
19812;SDS011;10066;48.108;11.448;2022-10-16T08:40:03;1.60;;;1.50;;
19812;SDS011;10066;48.108;11.448;2022-10-16T08:42:35;3.57;;;1.30;;
19812;SDS011;10066;48.108;11.448;2022-10-16T08:45:23;3.87;;;1.30;;
19812;SDS011;10066;48.108;11.448;2022-10-16T08:48:04;1.50;;;1.20;;
19812;SDS011;10066;48.108;11.448;2022-10-16T08:50:41;1.47;;;1.20;;
19812;SDS011;10066;48.108;11.448;2022-10-16T08:53:10;1.37;;;1.20;;
19812;SDS011;10066;48.108;11.448;2022-10-16T08:55:45;2.60;;;1.20;;
19812;SDS011;10066;48.108;11.448;2022-10-16T08:58:16;2.40;;;1.33;;
19812;SDS011;10066;48.108;11.448;2022-10-16T09:00:46;1.37;;;1.27;;
19812;SDS011;10066;48.108;11.448;2022-10-16T09:03:23;2.30;;;1.27;;
19812;SDS011;10066;48.108;11.448;2022-10-16T09:06:04;1.30;;;1.20;;
19812;SDS011;10066;48.108;11.448;2022-10-16T09:08:39;3.40;;;1.50;;
19812;SDS011;10066;48.108;11.448;2022-10-16T09:11:09;3.07;;;1.40;;
19812;SDS011;10066;48.108;11.448;2022-10-16T09:13:47;1.70;;;1.33;;
19812;SDS011;10066;48.108;11.448;2022-10-16T09:16:19;3.13;;;1.20;;
19812;SDS011;10066;48.108;11.448;2022-10-16T09:18:52;1.33;;;1.20;;
19812;SDS011;10066;48.108;11.448;2022-10-16T09:21:25;3.23;;;1.20;;
19812;SDS011;10066;48.108;11.448;2022-10-16T09:23:55;2.37;;;1.30;;
19812;SDS011;10066;48.108;11.448;2022-10-16T09:26:25;2.93;;;1.40;;
19812;SDS011;10066;48.108;11.448;2022-10-16T09:28:52;2.67;;;1.07;;
19812;SDS011;10066;48.108;11.448;2022-10-16T09:31:21;1.20;;;1.10;;
19812;SDS011;10066;48.108;11.448;2022-10-16T09:33:50;1.93;;;1.30;;
19812;SDS011;10066;48.108;11.448;2022-10-16T09:36:20;1.87;;;1.27;;
19812;SDS011;10066;48.108;11.448;2022-10-16T09:38:48;2.57;;;1.10;;
19812;SDS011;10066;48.108;11.448;2022-10-16T09:41:19;1.30;;;1.20;;
19812;SDS011;10066;48.108;11.448;2022-10-16T09:43:49;2.13;;;1.00;;
19812;SDS011;10066;48.108;11.448;2022-10-16T09:46:24;1.77;;;1.17;;
19812;SDS011;10066;48.108;11.448;2022-10-16T09:48:54;2.70;;;1.10;;
19812;SDS011;10066;48.108;11.448;2022-10-16T09:51:24;3.07;;;1.20;;
19812;SDS011;10066;48.108;11.448;2022-10-16T09:53:57;1.13;;;1.03;;
19812;SDS011;10066;48.108;11.448;2022-10-16T09:56:26;2.30;;;1.10;;
19812;SDS011;10066;48.108;11.448;2022-10-16T09:58:55;1.30;;;1.00;;
19812;SDS011;10066;48.108;11.448;2022-10-16T10:01:26;1.50;;;1.07;;
19812;SDS011;10066;48.108;11.448;2022-10-16T10:03:57;1.17;;;0.90;;
19812;SDS011;10066;48.108;11.448;2022-10-16T10:06:28;2.83;;;1.10;;
19812;SDS011;10066;48.108;11.448;2022-10-16T10:08:59;1.07;;;0.97;;
19812;SDS011;10066;48.108;11.448;2022-10-16T10:11:39;4.20;;;1.00;;
19812;SDS011;10066;48.108;11.448;2022-10-16T10:14:13;1.23;;;0.90;;
19812;SDS011;10066;48.108;11.448;2022-10-16T10:16:45;1.20;;;0.90;;
19812;SDS011;10066;48.108;11.448;2022-10-16T10:19:13;1.00;;;0.90;;
19812;SDS011;10066;48.108;11.448;2022-10-16T10:21:41;1.13;;;0.90;;
19812;SDS011;10066;48.108;11.448;2022-10-16T10:24:10;1.73;;;0.90;;
19812;SDS011;10066;48.108;11.448;2022-10-16T10:26:37;0.80;;;0.80;;
19812;SDS011;10066;48.108;11.448;2022-10-16T10:29:10;1.00;;;0.90;;
19812;SDS011;10066;48.108;11.448;2022-10-16T10:31:47;2.07;;;1.00;;
19812;SDS011;10066;48.108;11.448;2022-10-16T10:34:26;2.30;;;0.93;;
19812;SDS011;10066;48.108;11.448;2022-10-16T10:37:08;1.07;;;0.97;;
19812;SDS011;10066;48.108;11.448;2022-10-16T10:39:42;3.43;;;1.20;;
19812;SDS011;10066;48.108;11.448;2022-10-16T10:42:14;2.77;;;1.33;;
19812;SDS011;10066;48.108;11.448;2022-10-16T10:44:55;1.50;;;1.17;;
19812;SDS011;10066;48.108;11.448;2022-10-16T10:47:35;1.53;;;1.10;;
19812;SDS011;10066;48.108;11.448;2022-10-16T10:50:12;1.30;;;1.20;;
19812;SDS011;10066;48.108;11.448;2022-10-16T10:52:49;2.40;;;1.20;;
19812;SDS011;10066;48.108;11.448;2022-10-16T10:55:26;2.13;;;1.10;;
19812;SDS011;10066;48.108;11.448;2022-10-16T10:58:04;1.83;;;1.20;;
19812;SDS011;10066;48.108;11.448;2022-10-16T11:00:51;2.70;;;1.10;;
19812;SDS011;10066;48.108;11.448;2022-10-16T11:03:31;1.33;;;1.00;;
19812;SDS011;10066;48.108;11.448;2022-10-16T11:06:10;3.03;;;1.23;;
19812;SDS011;10066;48.108;11.448;2022-10-16T11:08:42;1.47;;;1.00;;
19812;SDS011;10066;48.108;11.448;2022-10-16T11:11:16;2.20;;;1.10;;
19812;SDS011;10066;48.108;11.448;2022-10-16T11:13:50;1.00;;;0.90;;
19812;SDS011;10066;48.108;11.448;2022-10-16T11:16:22;0.93;;;0.83;;
19812;SDS011;10066;48.108;11.448;2022-10-16T11:18:56;1.00;;;0.80;;
19812;SDS011;10066;48.108;11.448;2022-10-16T11:21:29;1.37;;;0.67;;
19812;SDS011;10066;48.108;11.448;2022-10-16T11:24:04;0.80;;;0.70;;
19812;SDS011;10066;48.108;11.448;2022-10-16T11:26:38;1.87;;;0.60;;
19812;SDS011;10066;48.108;11.448;2022-10-16T11:29:10;1.63;;;0.47;;
19812;SDS011;10066;48.108;11.448;2022-10-16T11:31:43;0.60;;;0.40;;
19812;SDS011;10066;48.108;11.448;2022-10-16T11:34:17;1.83;;;0.50;;
19812;SDS011;10066;48.108;11.448;2022-10-16T11:36:50;0.57;;;0.50;;
19812;SDS011;10066;48.108;11.448;2022-10-16T11:39:20;0.70;;;0.67;;
19812;SDS011;10066;48.108;11.448;2022-10-16T11:41:50;3.30;;;0.90;;
19812;SDS011;10066;48.108;11.448;2022-10-16T11:44:27;3.07;;;0.90;;
19812;SDS011;10066;48.108;11.448;2022-10-16T11:47:09;0.77;;;0.77;;
19812;SDS011;10066;48.108;11.448;2022-10-16T11:49:51;0.80;;;0.80;;
19812;SDS011;10066;48.108;11.448;2022-10-16T11:52:23;0.97;;;0.77;;
19812;SDS011;10066;48.108;11.448;2022-10-16T11:54:55;0.87;;;0.80;;
19812;SDS011;10066;48.108;11.448;2022-10-16T11:57:26;0.83;;;0.70;;
19812;SDS011;10066;48.108;11.448;2022-10-16T11:59:58;1.50;;;0.77;;
19812;SDS011;10066;48.108;11.448;2022-10-16T12:02:32;0.70;;;0.60;;
19812;SDS011;10066;48.108;11.448;2022-10-16T12:05:11;3.07;;;1.00;;
19812;SDS011;10066;48.108;11.448;2022-10-16T12:07:46;0.90;;;0.63;;
19812;SDS011;10066;48.108;11.448;2022-10-16T12:10:20;4.43;;;0.50;;
19812;SDS011;10066;48.108;11.448;2022-10-16T12:12:48;0.83;;;0.60;;
19812;SDS011;10066;48.108;11.448;2022-10-16T12:15:20;0.97;;;0.60;;
19812;SDS011;10066;48.108;11.448;2022-10-16T12:17:50;1.47;;;0.70;;
19812;SDS011;10066;48.108;11.448;2022-10-16T12:23:04;1.10;;;0.73;;
19812;SDS011;10066;48.108;11.448;2022-10-16T12:25:32;0.57;;;0.50;;
19812;SDS011;10066;48.108;11.448;2022-10-16T12:28:03;0.50;;;0.50;;
19812;SDS011;10066;48.108;11.448;2022-10-16T12:30:32;0.50;;;0.43;;
19812;SDS011;10066;48.108;11.448;2022-10-16T12:33:02;0.83;;;0.50;;
19812;SDS011;10066;48.108;11.448;2022-10-16T12:35:31;0.60;;;0.50;;
19812;SDS011;10066;48.108;11.448;2022-10-16T12:38:18;1.20;;;0.53;;
19812;SDS011;10066;48.108;11.448;2022-10-16T12:40:54;0.50;;;0.50;;
19812;SDS011;10066;48.108;11.448;2022-10-16T12:43:37;1.63;;;0.50;;
19812;SDS011;10066;48.108;11.448;2022-10-16T12:46:20;0.90;;;0.60;;
19812;SDS011;10066;48.108;11.448;2022-10-16T12:48:50;1.67;;;0.50;;
19812;SDS011;10066;48.108;11.448;2022-10-16T12:51:24;1.00;;;0.60;;
19812;SDS011;10066;48.108;11.448;2022-10-16T12:54:02;0.93;;;0.50;;
19812;SDS011;10066;48.108;11.448;2022-10-16T12:56:40;1.00;;;0.77;;
19812;SDS011;10066;48.108;11.448;2022-10-16T12:59:18;1.00;;;0.70;;
19812;SDS011;10066;48.108;11.448;2022-10-16T13:01:58;1.37;;;0.70;;
19812;SDS011;10066;48.108;11.448;2022-10-16T13:04:47;2.10;;;0.80;;
19812;SDS011;10066;48.108;11.448;2022-10-16T13:07:38;0.50;;;0.50;;
19812;SDS011;10066;48.108;11.448;2022-10-16T13:10:17;0.60;;;0.60;;
19812;SDS011;10066;48.108;11.448;2022-10-16T13:15:52;1.20;;;0.63;;
19812;SDS011;10066;48.108;11.448;2022-10-16T13:18:28;0.90;;;0.50;;
19812;SDS011;10066;48.108;11.448;2022-10-16T13:21:08;2.03;;;0.60;;
19812;SDS011;10066;48.108;11.448;2022-10-16T13:23:46;0.70;;;0.60;;
19812;SDS011;10066;48.108;11.448;2022-10-16T13:26:24;1.57;;;0.70;;
19812;SDS011;10066;48.108;11.448;2022-10-16T13:29:02;1.40;;;0.70;;
19812;SDS011;10066;48.108;11.448;2022-10-16T13:31:30;2.70;;;0.70;;
19812;SDS011;10066;48.108;11.448;2022-10-16T13:33:59;0.80;;;0.63;;
19812;SDS011;10066;48.108;11.448;2022-10-16T13:36:28;2.30;;;0.70;;
19812;SDS011;10066;48.108;11.448;2022-10-16T13:39:10;1.13;;;0.70;;
19812;SDS011;10066;48.108;11.448;2022-10-16T13:41:40;3.33;;;0.70;;
19812;SDS011;10066;48.108;11.448;2022-10-16T13:44:13;0.70;;;0.60;;
19812;SDS011;10066;48.108;11.448;2022-10-16T13:46:42;1.33;;;0.70;;
19812;SDS011;10066;48.108;11.448;2022-10-16T13:49:13;2.57;;;0.80;;
19812;SDS011;10066;48.108;11.448;2022-10-16T13:51:47;0.50;;;0.50;;
19812;SDS011;10066;48.108;11.448;2022-10-16T13:54:20;0.60;;;0.60;;
19812;SDS011;10066;48.108;11.448;2022-10-16T13:56:49;0.63;;;0.60;;
19812;SDS011;10066;48.108;11.448;2022-10-16T13:59:23;2.40;;;0.67;;
19812;SDS011;10066;48.108;11.448;2022-10-16T14:01:51;1.20;;;0.70;;
19812;SDS011;10066;48.108;11.448;2022-10-16T14:04:20;2.27;;;0.80;;
19812;SDS011;10066;48.108;11.448;2022-10-16T14:06:49;2.73;;;0.70;;
19812;SDS011;10066;48.108;11.448;2022-10-16T14:09:20;1.17;;;0.70;;
19812;SDS011;10066;48.108;11.448;2022-10-16T14:11:53;0.60;;;0.60;;
19812;SDS011;10066;48.108;11.448;2022-10-16T14:14:22;1.60;;;0.90;;
19812;SDS011;10066;48.108;11.448;2022-10-16T14:16:50;0.60;;;0.60;;
19812;SDS011;10066;48.108;11.448;2022-10-16T14:19:19;0.83;;;0.67;;
19812;SDS011;10066;48.108;11.448;2022-10-16T14:21:49;0.90;;;0.80;;
19812;SDS011;10066;48.108;11.448;2022-10-16T14:24:24;0.90;;;0.70;;
19812;SDS011;10066;48.108;11.448;2022-10-16T14:26:54;1.30;;;0.70;;
19812;SDS011;10066;48.108;11.448;2022-10-16T14:29:22;0.67;;;0.60;;
19812;SDS011;10066;48.108;11.448;2022-10-16T14:31:54;1.53;;;0.53;;
19812;SDS011;10066;48.108;11.448;2022-10-16T14:34:26;0.70;;;0.70;;
19812;SDS011;10066;48.108;11.448;2022-10-16T14:36:55;2.73;;;0.80;;
19812;SDS011;10066;48.108;11.448;2022-10-16T14:39:24;1.30;;;0.93;;
19812;SDS011;10066;48.108;11.448;2022-10-16T14:41:55;1.20;;;0.70;;
19812;SDS011;10066;48.108;11.448;2022-10-16T14:44:26;1.50;;;0.80;;
19812;SDS011;10066;48.108;11.448;2022-10-16T14:46:56;1.40;;;0.70;;
19812;SDS011;10066;48.108;11.448;2022-10-16T14:49:24;0.90;;;0.80;;
19812;SDS011;10066;48.108;11.448;2022-10-16T14:51:53;1.40;;;0.70;;
19812;SDS011;10066;48.108;11.448;2022-10-16T14:54:20;0.90;;;0.60;;
19812;SDS011;10066;48.108;11.448;2022-10-16T14:56:48;1.00;;;0.70;;
19812;SDS011;10066;48.108;11.448;2022-10-16T14:59:19;1.80;;;1.07;;